createdAt,value
2022-11-09T00:01:17.820Z,55.10
2022-11-09T00:03:45.889Z,55.10
2022-11-09T00:06:15.937Z,55.10
2022-11-09T00:08:43.806Z,54.90
2022-11-09T00:11:13.021Z,54.90
2022-11-09T00:13:43.104Z,54.90
2022-11-09T00:16:12.372Z,54.80
2022-11-09T00:18:41.367Z,54.80
2022-11-09T00:21:10.154Z,54.80
2022-11-09T00:23:39.638Z,54.90
2022-11-09T00:26:09.487Z,54.80
2022-11-09T00:28:37.751Z,54.80
2022-11-09T00:31:07.680Z,54.70
2022-11-09T00:33:36.286Z,54.80
2022-11-09T00:36:07.677Z,54.70
2022-11-09T00:38:36.248Z,54.70
2022-11-09T00:41:06.753Z,54.70
2022-11-09T00:43:35.130Z,54.80
2022-11-09T00:46:03.483Z,54.70
2022-11-09T00:48:31.956Z,54.60
2022-11-09T00:51:00.163Z,54.60
2022-11-09T00:53:29.197Z,54.60
2022-11-09T00:55:58.761Z,54.70
2022-11-09T00:58:29.790Z,54.60
2022-11-09T01:00:59.073Z,54.60
2022-11-09T01:03:27.961Z,54.60
2022-11-09T01:05:59.832Z,54.60
2022-11-09T01:08:27.939Z,54.60
2022-11-09T01:10:56.224Z,54.60
2022-11-09T01:13:24.736Z,54.70
2022-11-09T01:15:54.840Z,54.70
2022-11-09T01:18:23.534Z,54.60
2022-11-09T01:20:51.992Z,54.60
2022-11-09T01:23:21.529Z,54.60
2022-11-09T01:25:49.692Z,54.50
2022-11-09T01:28:18.084Z,54.50
2022-11-09T01:30:46.837Z,54.60
2022-11-09T01:33:16.396Z,54.50
2022-11-09T01:35:44.591Z,54.50
2022-11-09T01:38:13.398Z,54.60
2022-11-09T01:40:41.675Z,54.60
2022-11-09T01:43:17.697Z,54.50
2022-11-09T01:45:48.695Z,54.50
2022-11-09T01:48:22.829Z,54.50
2022-11-09T01:50:54.701Z,54.50
2022-11-09T01:53:32.359Z,54.50
2022-11-09T01:56:04.478Z,54.60
2022-11-09T01:58:38.939Z,54.40
2022-11-09T02:01:11.195Z,54.50
2022-11-09T02:03:43.961Z,54.50
2022-11-09T02:06:15.573Z,54.50
2022-11-09T02:08:45.234Z,54.50
2022-11-09T02:11:15.450Z,54.60
2022-11-09T02:13:47.312Z,54.50
2022-11-09T02:16:16.527Z,54.50
2022-11-09T02:18:51.451Z,54.50
2022-11-09T02:21:21.356Z,54.80
2022-11-09T02:23:49.663Z,54.70
2022-11-09T02:26:24.631Z,54.50
2022-11-09T02:28:55.497Z,54.60
2022-11-09T02:31:28.506Z,54.50
2022-11-09T02:34:00.829Z,54.60
2022-11-09T02:36:30.245Z,54.50
2022-11-09T02:38:59.237Z,54.50
2022-11-09T02:41:28.617Z,54.60
2022-11-09T02:43:57.237Z,54.60
2022-11-09T02:46:27.189Z,54.60
2022-11-09T02:48:55.247Z,54.60
2022-11-09T02:51:23.300Z,54.60
2022-11-09T02:53:52.776Z,54.60
2022-11-09T02:56:20.818Z,54.60
2022-11-09T02:58:48.919Z,54.60
2022-11-09T03:01:17.034Z,54.70
2022-11-09T03:03:45.289Z,54.60
2022-11-09T03:06:13.398Z,54.60
2022-11-09T03:08:41.528Z,54.70
2022-11-09T03:11:10.960Z,54.60
2022-11-09T03:13:39.163Z,54.60
2022-11-09T03:16:08.673Z,54.70
2022-11-09T03:18:36.765Z,54.80
2022-11-09T03:21:05.482Z,54.70
2022-11-09T03:23:33.854Z,54.80
2022-11-09T03:26:01.940Z,54.70
2022-11-09T03:28:31.492Z,54.70
2022-11-09T03:30:59.542Z,54.70
2022-11-09T03:33:27.652Z,54.70
2022-11-09T03:35:55.707Z,54.80
2022-11-09T03:38:23.783Z,54.90
2022-11-09T03:40:51.831Z,54.90
2022-11-09T03:43:20.122Z,54.80
2022-11-09T03:45:49.862Z,54.90
2022-11-09T03:48:17.953Z,54.90
2022-11-09T03:50:45.995Z,54.90
2022-11-09T03:53:14.761Z,55.60
2022-11-09T03:55:42.827Z,55.60
2022-11-09T03:58:12.455Z,55.70
2022-11-09T04:00:40.568Z,55.70
2022-11-09T04:03:10.017Z,55.80
2022-11-09T04:05:38.106Z,55.80
2022-11-09T04:08:06.617Z,55.50
2022-11-09T04:18:01.041Z,76.10
2022-11-09T04:23:01.937Z,78.60
2022-11-09T04:25:33.600Z,74.80
2022-11-09T04:28:02.675Z,76.00
2022-11-09T04:33:01.466Z,76.30
2022-11-09T04:45:29.093Z,84.00
2022-11-09T04:50:28.367Z,72.00
2022-11-09T04:55:36.184Z,90.30
2022-11-09T05:00:33.161Z,76.30
2022-11-09T05:20:26.460Z,79.10
2022-11-09T05:43:01.741Z,70.20
2022-11-09T05:45:42.456Z,86.90
2022-11-09T05:48:12.133Z,82.40
2022-11-09T05:50:41.286Z,85.00
2022-11-09T05:53:10.279Z,56.80
2022-11-09T05:58:08.394Z,78.30
2022-11-09T06:00:36.758Z,69.40
2022-11-09T06:03:05.561Z,85.90
2022-11-09T06:05:34.286Z,88.50
2022-11-09T06:08:05.401Z,90.70
2022-11-09T06:18:00.402Z,79.40
2022-11-09T06:20:29.637Z,75.60
2022-11-09T06:23:02.789Z,72.10
2022-11-09T06:25:33.012Z,75.40
2022-11-09T06:33:03.556Z,90.70
2022-11-09T06:38:01.643Z,63.50
2022-11-09T06:45:29.092Z,68.50
2022-11-09T06:47:57.700Z,76.10
2022-11-09T06:50:28.053Z,77.50
2022-11-09T07:00:23.835Z,91.50
2022-11-09T07:02:51.957Z,90.00
2022-11-09T07:07:49.944Z,73.30
2022-11-09T07:20:14.834Z,77.70
2022-11-09T07:25:13.795Z,83.70
2022-11-09T07:30:11.709Z,79.20
2022-11-09T07:33:07.585Z,78.70
2022-11-09T07:43:00.754Z,83.60
2022-11-09T07:50:26.996Z,58.50
2022-11-09T07:55:25.024Z,77.30
2022-11-09T08:00:27.813Z,79.20
2022-11-09T08:15:28.039Z,79.90
2022-11-09T08:32:49.993Z,76.10
2022-11-09T08:35:20.499Z,80.50
2022-11-09T08:37:50.023Z,81.90
2022-11-09T08:58:18.354Z,74.00
2022-11-09T09:18:09.102Z,84.60
2022-11-09T09:20:38.631Z,83.70
2022-11-09T09:28:03.649Z,79.70
2022-11-09T09:33:01.176Z,81.40
2022-11-09T09:35:29.394Z,79.90
2022-11-09T09:37:59.191Z,77.40
2022-11-09T09:40:35.048Z,72.50
2022-11-09T09:43:03.682Z,69.10
2022-11-09T09:45:34.814Z,72.90
2022-11-09T09:48:14.885Z,63.90
2022-11-09T09:50:49.684Z,69.70
2022-11-09T09:53:28.050Z,60.60
2022-11-09T09:56:01.314Z,63.00
2022-11-09T09:58:31.367Z,55.40
2022-11-09T10:01:05.875Z,52.70
2022-11-09T10:03:34.013Z,53.10
2022-11-09T10:06:10.283Z,51.50
2022-11-09T10:08:49.024Z,43.10
2022-11-09T10:11:27.313Z,42.30
2022-11-09T10:14:08.245Z,44.00
2022-11-09T10:16:42.210Z,48.30
2022-11-09T10:19:27.459Z,40.90
2022-11-09T10:22:01.745Z,40.40
2022-11-09T10:24:48.513Z,40.00
2022-11-09T10:27:31.185Z,39.10
2022-11-09T10:30:04.864Z,38.90
2022-11-09T10:32:33.737Z,39.40
2022-11-09T10:35:07.845Z,39.50
2022-11-09T10:37:39.991Z,38.60
2022-11-09T10:40:18.964Z,38.40
2022-11-09T10:42:50.363Z,38.50
2022-11-09T10:45:32.580Z,39.20
2022-11-09T10:48:01.860Z,40.30
2022-11-09T10:50:34.341Z,39.50
2022-11-09T10:53:21.723Z,51.60
2022-11-09T10:55:56.481Z,54.40
2022-11-09T10:58:31.558Z,54.70
2022-11-09T11:01:03.243Z,54.30
2022-11-09T11:03:33.205Z,54.50
2022-11-09T11:06:02.715Z,49.30
2022-11-09T11:08:34.981Z,46.40
2022-11-09T11:11:35.556Z,49.00
2022-11-09T11:14:16.000Z,48.30
2022-11-09T11:16:50.740Z,51.40
2022-11-09T11:19:34.931Z,51.50
2022-11-09T11:22:27.602Z,51.00
2022-11-09T11:24:58.022Z,53.20
2022-11-09T11:27:33.168Z,53.70
2022-11-09T11:30:10.518Z,39.40
2022-11-09T11:32:38.837Z,55.20
2022-11-09T11:35:14.544Z,40.90
2022-11-09T11:37:52.639Z,59.50
2022-11-09T11:40:25.611Z,57.70
2022-11-09T11:43:17.284Z,58.80
2022-11-09T11:45:55.062Z,60.30
2022-11-09T11:48:43.293Z,59.60
2022-11-09T11:51:16.685Z,60.70
2022-11-09T11:54:04.053Z,42.50
2022-11-09T11:56:36.044Z,61.00
2022-11-09T11:59:24.523Z,41.90
2022-11-09T12:02:16.074Z,54.80
2022-11-09T12:05:14.873Z,55.20
2022-11-09T12:07:47.390Z,54.80
2022-11-09T12:10:28.511Z,38.90
2022-11-09T12:13:05.013Z,50.30
2022-11-09T12:15:48.971Z,36.90
2022-11-09T12:18:31.034Z,44.30
2022-11-09T12:21:11.283Z,35.40
2022-11-09T12:23:52.902Z,50.10
2022-11-09T12:26:31.669Z,50.30
2022-11-09T12:29:11.224Z,48.40
2022-11-09T12:31:50.581Z,36.90
2022-11-09T12:34:24.519Z,36.80
2022-11-09T12:36:56.786Z,36.80
2022-11-09T12:39:30.454Z,36.80
2022-11-09T12:42:05.566Z,36.70
2022-11-09T12:44:38.062Z,36.50
2022-11-09T12:47:15.401Z,36.20
2022-11-09T12:49:46.245Z,36.00
2022-11-09T12:52:16.594Z,36.10
2022-11-09T12:54:48.112Z,35.80
2022-11-09T12:57:22.725Z,36.20
2022-11-09T12:59:53.776Z,36.70
2022-11-09T13:02:31.126Z,36.90
2022-11-09T13:05:00.841Z,34.50
2022-11-09T13:07:49.863Z,32.10
2022-11-09T13:10:30.947Z,30.80
2022-11-09T13:13:19.748Z,30.40
2022-11-09T13:16:10.526Z,29.30
2022-11-09T13:18:52.321Z,28.90
2022-11-09T13:21:36.032Z,28.60
2022-11-09T13:24:49.589Z,28.50
2022-11-09T13:27:41.221Z,29.70
2022-11-09T13:30:42.018Z,30.90
2022-11-09T13:33:26.655Z,31.80
2022-11-09T13:36:16.718Z,32.30
2022-11-09T13:38:44.901Z,32.30
2022-11-09T13:41:43.992Z,33.40
2022-11-09T13:44:26.191Z,34.10
2022-11-09T13:46:55.416Z,35.60
2022-11-09T13:49:45.920Z,36.10
2022-11-09T13:52:53.421Z,35.40
2022-11-09T13:55:36.668Z,36.90
2022-11-09T13:58:24.560Z,37.40
2022-11-09T14:00:52.643Z,37.80
2022-11-09T14:03:24.788Z,38.00
2022-11-09T14:05:56.190Z,38.40
2022-11-09T14:08:26.473Z,38.60
2022-11-09T14:11:45.967Z,38.20
2022-11-09T14:14:34.490Z,38.60
2022-11-09T14:17:12.004Z,39.10
2022-11-09T14:20:01.148Z,39.10
2022-11-09T14:22:35.120Z,39.40
2022-11-09T14:25:06.570Z,40.20
2022-11-09T14:27:36.277Z,40.50
2022-11-09T14:30:15.198Z,39.50
2022-11-09T14:32:50.387Z,40.00
2022-11-09T14:35:24.460Z,40.70
2022-11-09T14:37:54.270Z,41.40
2022-11-09T14:40:25.283Z,41.40
2022-11-09T14:42:57.673Z,41.80
2022-11-09T14:45:26.089Z,42.10
2022-11-09T14:47:56.617Z,42.70
2022-11-09T14:50:27.406Z,42.90
2022-11-09T14:52:56.825Z,42.70
2022-11-09T14:55:26.101Z,42.70
2022-11-09T14:57:57.174Z,43.40
2022-11-09T15:00:33.061Z,43.60
2022-11-09T15:03:21.829Z,41.90
2022-11-09T15:05:50.358Z,40.00
2022-11-09T15:08:23.199Z,42.90
2022-11-09T15:10:53.101Z,42.70
2022-11-09T15:13:30.843Z,43.00
2022-11-09T15:15:59.164Z,43.20
2022-11-09T15:18:33.949Z,43.60
2022-11-09T15:21:17.051Z,44.00
2022-11-09T15:23:47.486Z,44.10
2022-11-09T15:26:37.463Z,60.10
2022-11-09T15:29:36.239Z,67.00
2022-11-09T15:32:14.325Z,70.00
2022-11-09T15:34:56.129Z,68.70
2022-11-09T15:37:28.227Z,71.80
2022-11-09T15:39:56.825Z,69.20
2022-11-09T15:44:57.273Z,72.60
2022-11-09T15:47:32.190Z,73.50
2022-11-09T15:50:01.017Z,60.80
2022-11-09T15:52:29.794Z,72.20
2022-11-09T15:59:56.350Z,59.80
2022-11-09T16:02:24.478Z,76.80
2022-11-09T16:04:52.591Z,74.00
2022-11-09T16:07:20.764Z,75.00
2022-11-09T16:09:49.062Z,74.10
2022-11-09T16:12:17.137Z,78.80
2022-11-09T16:14:45.232Z,75.50
2022-11-09T16:17:14.711Z,58.40
2022-11-09T16:19:43.326Z,78.30
2022-11-09T16:22:12.025Z,79.10
2022-11-09T16:27:22.174Z,58.20
2022-11-09T16:29:57.098Z,57.50
2022-11-09T16:32:26.676Z,75.50
2022-11-09T16:35:15.520Z,70.10
2022-11-09T16:37:43.395Z,71.10
2022-11-09T16:42:42.378Z,51.40
2022-11-09T16:45:13.296Z,71.20
2022-11-09T16:47:45.291Z,70.80
2022-11-09T16:50:13.738Z,70.30
2022-11-09T16:52:41.893Z,72.10
2022-11-09T16:55:10.707Z,56.50
2022-11-09T16:57:39.035Z,75.20
2022-11-09T17:00:08.561Z,74.50
2022-11-09T17:02:36.803Z,75.70
2022-11-09T17:05:07.539Z,67.60
2022-11-09T17:07:42.189Z,77.20
2022-11-09T17:10:11.547Z,78.20
2022-11-09T17:12:39.669Z,78.50
2022-11-09T17:15:09.084Z,57.60
2022-11-09T17:17:37.178Z,70.20
2022-11-09T17:20:08.012Z,78.00
2022-11-09T17:25:10.187Z,80.90
2022-11-09T17:27:39.231Z,57.60
2022-11-09T17:30:08.981Z,77.30
2022-11-09T17:32:38.109Z,79.70
2022-11-09T17:37:35.993Z,65.50
2022-11-09T17:52:27.355Z,62.80
2022-11-09T18:09:47.017Z,61.40
2022-11-09T18:12:16.504Z,79.00
2022-11-09T18:24:41.224Z,77.50
2022-11-09T18:27:10.670Z,58.00
2022-11-09T18:29:38.723Z,75.80
2022-11-09T18:42:01.947Z,81.70
2022-11-09T18:44:31.426Z,53.90
2022-11-09T18:47:05.030Z,77.10
2022-11-09T18:52:02.410Z,79.50
2022-11-09T19:01:57.898Z,59.00
2022-11-09T19:04:25.958Z,84.40
2022-11-09T19:12:00.872Z,64.40
2022-11-09T19:16:58.882Z,63.30
2022-11-09T19:21:56.850Z,64.80
2022-11-09T19:24:26.620Z,63.30
2022-11-09T19:34:22.949Z,64.80
2022-11-09T19:46:46.652Z,83.70
2022-11-09T19:51:44.579Z,61.20
2022-11-09T19:54:14.442Z,61.10
2022-11-09T19:59:15.233Z,62.00
2022-11-09T20:06:41.505Z,57.60
2022-11-09T20:09:11.024Z,61.70
2022-11-09T20:19:23.801Z,81.30
2022-11-09T20:21:52.165Z,82.10
2022-11-09T20:24:21.677Z,59.60
2022-11-09T20:34:14.850Z,82.60
2022-11-09T20:36:43.032Z,79.70
2022-11-09T20:41:40.880Z,57.60
2022-11-09T20:49:06.490Z,60.20
2022-11-09T20:59:06.098Z,53.90
2022-11-09T21:01:34.674Z,77.70
2022-11-09T21:09:01.347Z,76.90
2022-11-09T21:11:35.636Z,76.40
2022-11-09T21:14:05.467Z,69.90
2022-11-09T21:16:33.973Z,72.30
2022-11-09T21:19:02.081Z,75.00
2022-11-09T21:21:36.139Z,74.80
2022-11-09T21:24:22.646Z,75.40
2022-11-09T21:29:52.915Z,72.40
2022-11-09T21:32:22.250Z,77.10
2022-11-09T21:34:51.418Z,55.30
2022-11-09T21:37:19.537Z,58.10
2022-11-09T21:42:16.230Z,76.90
2022-11-09T21:44:45.752Z,74.90
2022-11-09T21:47:14.070Z,75.40
2022-11-09T21:49:42.200Z,78.30
2022-11-09T21:52:11.505Z,74.30
2022-11-09T21:54:40.659Z,76.50
2022-11-09T21:57:08.717Z,76.30
2022-11-09T21:59:36.815Z,74.50
2022-11-09T22:02:06.264Z,74.90
2022-11-09T22:04:34.359Z,72.90
2022-11-09T22:07:02.475Z,75.40
2022-11-09T22:09:50.387Z,74.00
2022-11-09T22:12:36.126Z,74.00
2022-11-09T22:15:21.738Z,73.00
2022-11-09T22:17:54.507Z,77.20
2022-11-09T22:23:08.577Z,72.90
2022-11-09T22:25:36.678Z,73.20
2022-11-09T22:28:04.778Z,73.00
2022-11-09T22:30:32.886Z,72.50
2022-11-09T22:33:02.333Z,72.20
2022-11-09T22:39:17.245Z,66.50
2022-11-09T22:41:45.317Z,68.90
2022-11-09T22:44:14.115Z,70.30
2022-11-09T22:46:42.202Z,70.50
2022-11-09T22:49:11.612Z,54.70
2022-11-09T22:51:39.683Z,69.30
2022-11-09T22:54:07.902Z,70.30
2022-11-09T22:56:35.985Z,52.10
2022-11-09T22:59:04.020Z,75.90
2022-11-09T23:01:32.182Z,78.50
2022-11-09T23:04:00.272Z,73.40
2022-11-09T23:06:29.873Z,72.80
2022-11-09T23:08:57.955Z,70.20
2022-11-09T23:11:26.503Z,75.40
2022-11-09T23:13:56.294Z,52.10
2022-11-09T23:16:25.118Z,72.70
2022-11-09T23:18:54.960Z,72.60
2022-11-09T23:21:25.661Z,52.40
2022-11-09T23:23:58.295Z,73.90
2022-11-09T23:26:26.169Z,72.60
2022-11-09T23:28:54.670Z,72.30
2022-11-09T23:31:25.092Z,65.90
2022-11-09T23:33:54.446Z,54.60
2022-11-09T23:36:23.590Z,69.30
2022-11-09T23:38:52.032Z,74.00
2022-11-09T23:41:21.780Z,70.70
2022-11-09T23:43:50.286Z,69.80
2022-11-09T23:46:19.044Z,67.70
2022-11-09T23:48:47.122Z,52.50
2022-11-09T23:51:15.217Z,75.20
2022-11-09T23:53:43.291Z,76.90
2022-11-09T23:56:13.001Z,71.10
2022-11-09T23:58:42.442Z,68.40
